Time;durP1;ratioP1;P1;durP2;ratioP2;P2;SDS_P1;SDS_P2;PMS_P1;PMS_P2;Temp;Humidity;BMP_temperature;BMP_pressure;BME280_temperature;BME280_humidity;BME280_pressure;Samples;Min_cycle;Max_cycle;Signal;HPM_P1;HPM_P2
2022/01/24 00:00:10;;;;;;;19.35;11.20;;;5.40;99.90;;;;;;5011476;28;20459;-50
2022/01/24 00:02:37;;;;;;;17.23;11.07;;;5.40;99.90;;;;;;5011892;28;20042;-51
2022/01/24 00:05:04;;;;;;;16.88;10.65;;;5.40;99.90;;;;;;5012202;28;20049;-48
2022/01/24 00:07:31;;;;;;;16.75;10.35;;;5.40;99.90;;;;;;5012235;28;20044;-53
2022/01/24 00:09:59;;;;;;;17.38;11.30;;;5.40;99.90;;;;;;5011760;28;20042;-51
2022/01/24 00:17:36;;;;;;;19.35;11.75;;;5.30;99.90;;;;;;5011186;28;20055;-51
2022/01/24 00:28:05;;;;;;;22.33;14.13;;;5.30;99.90;;;;;;5018261;28;20061;-50
2022/01/24 00:30:31;;;;;;;21.58;13.85;;;5.30;99.90;;;;;;5017030;28;20049;-52
2022/01/24 00:32:57;;;;;;;19.38;12.82;;;5.30;99.90;;;;;;5000965;28;20132;-52
2022/01/24 00:35:22;;;;;;;21.23;13.60;;;5.30;99.90;;;;;;5029668;28;20041;-54
2022/01/24 00:37:48;;;;;;;22.92;13.45;;;5.30;99.90;;;;;;5014600;28;20057;-53
2022/01/24 00:40:15;;;;;;;23.88;14.05;;;5.30;99.90;;;;;;5018492;28;20543;-53
2022/01/24 00:42:51;;;;;;;23.00;14.23;;;5.30;99.90;;;;;;5014481;28;20112;-53
2022/01/24 00:45:29;;;;;;;20.65;13.15;;;5.30;99.90;;;;;;5019882;28;20068;-52
2022/01/24 00:55:56;;;;;;;23.40;13.65;;;5.30;99.90;;;;;;5020654;28;20041;-50
2022/01/24 00:58:22;;;;;;;20.75;12.10;;;5.30;99.90;;;;;;5012470;28;20140;-52
2022/01/24 01:00:47;;;;;;;21.25;13.40;;;5.30;99.90;;;;;;5026722;28;20135;-53
2022/01/24 01:03:13;;;;;;;23.25;14.30;;;5.30;99.90;;;;;;5002465;28;20545;-54
2022/01/24 01:19:21;;;;;;;20.65;12.98;;;5.20;99.90;;;;;;5011027;28;20096;-54
2022/01/24 01:21:47;;;;;;;21.98;13.48;;;5.20;99.90;;;;;;5010856;28;20049;-55
2022/01/24 01:24:13;;;;;;;20.90;12.88;;;5.20;99.90;;;;;;5011368;28;20440;-51
2022/01/24 01:26:45;;;;;;;19.88;12.90;;;5.10;99.90;;;;;;5011134;28;20053;-52
2022/01/24 01:29:20;;;;;;;18.80;12.13;;;5.20;99.90;;;;;;5010611;28;20050;-53
2022/01/24 01:32:17;;;;;;;20.13;12.07;;;5.10;99.90;;;;;;5011074;28;20060;-53
2022/01/24 01:37:43;;;;;;;18.88;12.40;;;5.10;99.90;;;;;;5010257;28;20562;-53
2022/01/24 01:56:06;;;;;;;17.02;10.70;;;5.10;99.90;;;;;;5014576;28;20046;-55
2022/01/24 01:58:32;;;;;;;17.70;10.95;;;5.10;99.90;;;;;;5014038;28;20041;-49
2022/01/24 02:00:59;;;;;;;15.18;9.65;;;5.10;99.90;;;;;;5014420;28;20600;-54
2022/01/24 02:03:27;;;;;;;13.52;9.60;;;5.10;99.90;;;;;;5014231;28;20164;-54
2022/01/24 02:05:53;;;;;;;13.82;8.65;;;5.10;99.90;;;;;;5014068;28;20135;-52
2022/01/24 02:08:23;;;;;;;13.10;8.93;;;5.00;99.90;;;;;;5014580;28;20400;-50
2022/01/24 02:10:49;;;;;;;15.57;9.15;;;5.00;99.90;;;;;;5013843;28;20041;-52
2022/01/24 02:13:15;;;;;;;13.25;8.93;;;5.10;99.90;;;;;;4996371;28;20037;-55
2022/01/24 02:21:28;;;;;;;13.88;8.52;;;5.00;99.90;;;;;;5002034;28;20136;-52
2022/01/24 02:23:58;;;;;;;12.70;8.55;;;5.10;99.90;;;;;;5025519;28;20469;-51
2022/01/24 02:26:24;;;;;;;12.40;8.68;;;5.10;99.90;;;;;;5031047;28;20456;-54
2022/01/24 02:29:18;;;;;;;11.85;8.35;;;5.00;99.90;;;;;;5030752;28;20065;-50
2022/01/24 02:31:49;;;;;;;13.63;8.85;;;5.00;99.90;;;;;;5031742;28;20041;-53
2022/01/24 02:34:37;;;;;;;13.90;8.80;;;5.00;99.90;;;;;;5031301;28;20726;-49
2022/01/24 02:37:24;;;;;;;13.07;9.23;;;5.00;99.90;;;;;;5026628;28;20136;-54
2022/01/24 02:40:01;;;;;;;15.10;9.75;;;5.00;99.90;;;;;;5029234;28;20120;-55
2022/01/24 02:53:26;;;;;;;16.42;10.63;;;5.10;99.90;;;;;;5020557;28;20045;-52
2022/01/24 02:55:52;;;;;;;16.92;10.48;;;5.10;99.90;;;;;;5032893;28;20037;-52
2022/01/24 02:58:19;;;;;;;17.70;11.13;;;5.10;99.90;;;;;;5017347;28;20041;-54
2022/01/24 03:00:47;;;;;;;17.67;11.02;;;5.10;99.90;;;;;;5021522;28;20142;-53
2022/01/24 03:03:14;;;;;;;17.35;11.73;;;5.10;99.90;;;;;;5015424;28;20042;-54
2022/01/24 03:05:39;;;;;;;16.77;10.85;;;5.10;99.90;;;;;;5024270;28;20033;-53
2022/01/24 03:08:06;;;;;;;17.15;10.90;;;5.10;99.90;;;;;;5017265;28;20044;-54
2022/01/24 03:10:46;;;;;;;19.20;11.32;;;5.10;99.90;;;;;;5020388;28;20033;-53
2022/01/24 03:15:43;;;;;;;15.57;10.73;;;5.10;99.90;;;;;;5027958;28;20050;-50
2022/01/24 03:18:10;;;;;;;17.17;11.52;;;5.10;99.90;;;;;;5019739;28;20042;-54
2022/01/24 03:20:37;;;;;;;17.88;11.38;;;5.10;99.90;;;;;;5014537;28;20093;-51
2022/01/24 03:23:03;;;;;;;18.10;11.38;;;5.10;99.90;;;;;;5011248;28;20058;-51
2022/01/24 03:25:29;;;;;;;16.98;11.27;;;5.10;99.90;;;;;;5012735;28;20445;-51
2022/01/24 03:27:56;;;;;;;19.52;11.82;;;5.00;99.90;;;;;;5012690;28;20432;-53
2022/01/24 03:30:22;;;;;;;17.67;11.40;;;5.10;99.90;;;;;;5012408;28;20033;-50
2022/01/24 03:32:48;;;;;;;18.73;12.20;;;5.00;99.90;;;;;;5011982;28;20042;-55
2022/01/24 03:35:14;;;;;;;18.40;10.98;;;5.00;99.90;;;;;;5012500;28;20053;-47
2022/01/24 03:37:39;;;;;;;19.13;11.35;;;5.00;99.90;;;;;;4995072;28;20553;-52
2022/01/24 03:40:06;;;;;;;19.73;11.65;;;5.00;99.90;;;;;;5012125;28;20042;-51
2022/01/24 03:42:32;;;;;;;21.92;11.70;;;5.00;99.90;;;;;;5012494;28;20474;-53
2022/01/24 03:45:02;;;;;;;20.58;11.52;;;5.00;99.90;;;;;;5012401;28;20543;-55
2022/01/24 03:50:05;;;;;;;18.98;12.50;;;5.00;99.90;;;;;;5012320;28;20136;-48
2022/01/24 03:52:31;;;;;;;17.50;11.45;;;5.00;99.90;;;;;;5012381;28;20041;-51
2022/01/24 03:54:58;;;;;;;18.77;11.57;;;5.00;99.90;;;;;;5012493;28;20485;-52
2022/01/24 03:57:24;;;;;;;19.30;12.20;;;5.00;99.90;;;;;;5002645;28;20103;-54
2022/01/24 03:59:50;;;;;;;20.08;12.40;;;5.00;99.90;;;;;;5011859;28;20432;-53
2022/01/24 04:02:19;;;;;;;19.05;12.45;;;5.00;99.90;;;;;;5011933;28;20038;-53
2022/01/24 04:04:45;;;;;;;18.80;12.80;;;5.00;99.90;;;;;;5012181;28;20038;-54
2022/01/24 04:07:10;;;;;;;20.73;13.13;;;5.00;99.90;;;;;;5012005;28;20045;-52
2022/01/24 04:09:39;;;;;;;20.95;12.65;;;5.00;99.90;;;;;;4993830;28;20048;-53
2022/01/24 04:12:06;;;;;;;21.45;12.95;;;5.00;99.90;;;;;;5011934;28;20041;-52
2022/01/24 04:14:43;;;;;;;22.08;13.93;;;5.00;99.90;;;;;;5012001;28;20042;-52
2022/01/24 04:22:14;;;;;;;22.23;14.40;;;5.00;99.90;;;;;;5011406;28;20058;-56
2022/01/24 04:24:41;;;;;;;23.60;13.65;;;5.00;99.90;;;;;;5012048;28;20493;-55
2022/01/24 04:27:07;;;;;;;19.45;12.73;;;5.00;99.90;;;;;;5010361;28;20049;-53
2022/01/24 04:29:33;;;;;;;19.58;12.98;;;5.00;99.90;;;;;;5011569;28;20388;-53
2022/01/24 04:31:59;;;;;;;18.45;12.18;;;4.90;99.90;;;;;;5011309;28;20116;-54
2022/01/24 04:34:25;;;;;;;20.45;12.45;;;5.00;99.90;;;;;;5011606;28;20559;-53
2022/01/24 04:36:51;;;;;;;24.58;13.15;;;5.00;99.90;;;;;;5011648;28;20037;-55
2022/01/24 04:39:19;;;;;;;19.27;13.10;;;5.00;99.90;;;;;;4993484;28;20041;-53
2022/01/24 04:41:48;;;;;;;20.75;12.90;;;5.00;99.90;;;;;;5011275;28;20038;-53
2022/01/24 04:47:28;;;;;;;20.60;13.60;;;5.10;99.90;;;;;;5011929;28;20034;-56
2022/01/24 04:55:00;;;;;;;19.92;12.73;;;4.90;99.90;;;;;;5011674;28;20406;-52
2022/01/24 04:57:28;;;;;;;20.00;13.27;;;4.90;99.90;;;;;;5011564;28;20045;-52
2022/01/24 04:59:58;;;;;;;22.70;14.27;;;4.90;99.90;;;;;;5010711;28;20045;-52
2022/01/24 05:02:25;;;;;;;25.00;14.55;;;4.90;99.90;;;;;;5011416;28;20042;-54
2022/01/24 05:04:52;;;;;;;22.98;14.73;;;5.00;99.90;;;;;;5011392;28;20100;-52
2022/01/24 05:07:18;;;;;;;23.73;13.75;;;4.90;99.90;;;;;;5011031;28;20096;-50
2022/01/24 05:09:55;;;;;;;23.55;14.55;;;4.90;99.90;;;;;;5011073;28;20039;-55
2022/01/24 05:21:23;;;;;;;25.50;14.85;;;4.90;99.90;;;;;;5011052;28;20034;-53
2022/01/24 05:23:36;;;;;;;27.73;16.63;;;4.90;99.90;;;;;;5018376;28;20508;-51
2022/01/24 05:26:05;;;;;;;26.38;15.60;;;4.90;99.90;;;;;;5034495;28;20081;-52
2022/01/24 05:28:33;;;;;;;25.80;16.88;;;4.90;99.90;;;;;;5015762;28;20124;-55
2022/01/24 05:30:59;;;;;;;23.50;15.13;;;4.90;99.90;;;;;;5032718;28;20049;-53
2022/01/24 05:33:26;;;;;;;24.85;15.98;;;4.90;99.90;;;;;;5031854;28;20041;-53
2022/01/24 05:35:52;;;;;;;27.08;16.58;;;4.90;99.90;;;;;;5014757;28;20048;-54
2022/01/24 05:38:19;;;;;;;29.48;16.65;;;4.90;99.90;;;;;;5020173;28;20480;-51
2022/01/24 05:40:45;;;;;;;27.13;17.25;;;4.90;99.90;;;;;;5018545;28;20061;-49
2022/01/24 05:43:11;;;;;;;30.23;18.08;;;4.90;99.90;;;;;;5017251;28;20092;-52
2022/01/24 05:45:37;;;;;;;29.40;18.17;;;4.90;99.90;;;;;;5027226;28;20048;-55
2022/01/24 05:48:04;;;;;;;30.73;18.40;;;4.90;99.90;;;;;;5032075;28;20112;-54
2022/01/24 05:50:30;;;;;;;34.60;19.25;;;4.90;99.90;;;;;;5021470;28;20393;-54
2022/01/24 05:52:56;;;;;;;33.55;18.80;;;4.90;99.90;;;;;;5028452;28;20042;-52
2022/01/24 05:55:22;;;;;;;38.45;20.25;;;4.90;99.90;;;;;;5019222;28;20045;-53
2022/01/24 05:57:47;;;;;;;37.88;21.10;;;4.90;99.90;;;;;;5027130;28;20389;-51
2022/01/24 06:00:13;;;;;;;36.20;20.90;;;4.80;99.90;;;;;;5004737;28;20130;-54
2022/01/24 06:02:40;;;;;;;37.67;20.85;;;4.80;99.90;;;;;;5009649;28;20037;-53
2022/01/24 06:05:07;;;;;;;39.33;23.08;;;4.80;99.90;;;;;;5015353;28;20049;-52
2022/01/24 06:07:33;;;;;;;42.78;23.27;;;4.80;99.90;;;;;;5025116;28;20041;-55
2022/01/24 06:09:58;;;;;;;43.65;23.67;;;4.80;99.90;;;;;;5034004;28;20092;-54
2022/01/24 06:12:25;;;;;;;43.63;23.45;;;4.80;99.90;;;;;;5022586;28;20034;-52
2022/01/24 06:14:51;;;;;;;41.38;24.52;;;4.80;99.90;;;;;;5026854;28;20505;-54
2022/01/24 06:17:17;;;;;;;41.70;24.20;;;4.80;99.90;;;;;;5029089;28;20107;-54
2022/01/24 06:19:44;;;;;;;44.53;23.83;;;4.80;99.90;;;;;;5024789;28;20037;-52
2022/01/24 06:22:09;;;;;;;45.17;25.25;;;4.80;99.90;;;;;;5026433;28;20057;-50
2022/01/24 06:24:35;;;;;;;46.08;25.98;;;4.80;99.90;;;;;;5033649;28;20473;-52
2022/01/24 06:27:01;;;;;;;52.42;28.75;;;4.80;99.90;;;;;;5020059;28;20526;-53
2022/01/24 06:29:27;;;;;;;55.58;31.48;;;4.50;99.90;;;;;;5014076;28;20125;-51
2022/01/24 06:31:52;;;;;;;61.38;33.28;;;4.80;99.90;;;;;;5024647;28;20044;-49
2022/01/24 06:34:18;;;;;;;57.53;34.25;;;4.80;99.90;;;;;;5016905;28;20096;-51
2022/01/24 06:36:44;;;;;;;58.72;33.05;;;4.80;99.90;;;;;;5020077;28;20388;-52
2022/01/24 06:39:11;;;;;;;59.83;33.50;;;4.80;99.90;;;;;;5028248;28;20071;-53
2022/01/24 06:41:37;;;;;;;59.58;34.97;;;4.80;99.90;;;;;;5016392;28;20100;-52
2022/01/24 06:44:04;;;;;;;54.15;32.53;;;4.90;99.90;;;;;;5023380;28;20042;-54
2022/01/24 06:46:30;;;;;;;57.22;34.15;;;4.80;99.90;;;;;;5013466;28;20045;-53
2022/01/24 06:48:56;;;;;;;56.78;35.67;;;4.80;99.90;;;;;;5016374;28;20405;-52
2022/01/24 06:51:22;;;;;;;56.72;35.13;;;4.80;99.90;;;;;;5024715;28;20038;-53
2022/01/24 06:53:49;;;;;;;61.90;35.80;;;4.80;99.90;;;;;;5031886;28;20029;-51
2022/01/24 06:56:15;;;;;;;62.78;38.63;;;4.80;99.90;;;;;;5022483;28;20481;-55
2022/01/24 06:58:41;;;;;;;61.90;37.30;;;4.80;99.90;;;;;;4995987;28;20053;-49
2022/01/24 07:01:08;;;;;;;67.43;40.08;;;4.80;99.90;;;;;;5030884;28;20045;-54
2022/01/24 07:03:33;;;;;;;65.93;39.72;;;4.80;99.90;;;;;;5014804;28;20428;-51
2022/01/24 07:06:00;;;;;;;64.32;39.40;;;4.80;99.90;;;;;;5027171;28;20030;-55
2022/01/24 07:08:26;;;;;;;73.97;41.53;;;4.80;99.90;;;;;;5018662;28;20389;-51
2022/01/24 07:10:52;;;;;;;63.38;38.08;;;4.80;99.90;;;;;;5028668;28;20030;-51
2022/01/24 07:13:20;;;;;;;60.97;37.13;;;4.80;99.90;;;;;;5024502;28;20030;-53
2022/01/24 07:15:51;;;;;;;51.05;30.73;;;4.80;99.90;;;;;;5021449;28;20484;-54
2022/01/24 07:20:55;;;;;;;55.05;34.45;;;4.80;99.90;;;;;;5024689;28;20145;-50
2022/01/24 07:23:21;;;;;;;57.50;35.83;;;4.80;99.90;;;;;;5012772;28;20061;-51
2022/01/24 07:25:47;;;;;;;62.53;36.80;;;4.80;99.90;;;;;;5012898;28;20428;-51
2022/01/24 07:28:14;;;;;;;65.68;38.17;;;4.80;99.90;;;;;;5012907;28;20030;-51
2022/01/24 07:30:39;;;;;;;64.90;38.45;;;4.80;99.90;;;;;;5012361;28;20108;-53
2022/01/24 07:33:06;;;;;;;62.05;38.75;;;4.80;99.90;;;;;;5012705;28;20176;-53
2022/01/24 07:35:32;;;;;;;66.60;39.35;;;4.80;99.90;;;;;;5012692;28;20112;-53
2022/01/24 07:37:57;;;;;;;64.97;38.33;;;4.80;99.90;;;;;;5012697;28;20525;-51
2022/01/24 07:40:23;;;;;;;60.90;37.75;;;4.80;99.90;;;;;;5012739;28;20125;-48
2022/01/24 07:45:19;;;;;;;64.30;38.42;;;4.80;99.90;;;;;;5012688;28;20513;-50
2022/01/24 07:47:47;;;;;;;62.30;38.30;;;4.80;99.90;;;;;;5012155;28;20104;-51
2022/01/24 07:50:14;;;;;;;64.30;37.72;;;4.70;99.90;;;;;;5008492;28;20038;-54
2022/01/24 07:52:40;;;;;;;65.43;38.55;;;4.80;99.90;;;;;;5009287;28;20125;-49
2022/01/24 07:55:06;;;;;;;64.45;38.33;;;4.80;99.90;;;;;;5012143;28;20120;-54
2022/01/24 07:57:32;;;;;;;62.58;37.30;;;4.80;99.90;;;;;;5012000;28;20052;-52
2022/01/24 07:59:58;;;;;;;59.10;36.22;;;4.80;99.90;;;;;;5011850;28;20030;-52
2022/01/24 08:02:23;;;;;;;57.60;34.78;;;4.80;99.90;;;;;;5010762;28;20037;-54
2022/01/24 08:04:49;;;;;;;60.42;35.83;;;4.80;99.90;;;;;;5011827;28;20073;-51
2022/01/24 08:07:15;;;;;;;59.42;34.33;;;4.80;99.90;;;;;;5001284;28;20035;-50
2022/01/24 08:09:40;;;;;;;64.07;36.60;;;4.80;99.90;;;;;;4998629;28;20041;-52
2022/01/24 08:12:06;;;;;;;57.28;35.10;;;4.80;99.90;;;;;;4995804;28;20042;-54
2022/01/24 08:14:32;;;;;;;57.78;34.72;;;4.70;99.90;;;;;;4999501;28;20057;-54
2022/01/24 08:17:00;;;;;;;58.72;33.92;;;4.70;99.90;;;;;;4998967;28;20050;-51
2022/01/24 08:19:26;;;;;;;55.97;33.47;;;4.70;99.90;;;;;;5000323;28;20037;-49
2022/01/24 08:21:52;;;;;;;55.75;32.50;;;4.70;99.90;;;;;;5012819;28;20103;-51
2022/01/24 08:24:17;;;;;;;54.63;32.28;;;4.80;99.90;;;;;;5020203;28;20496;-53
2022/01/24 08:26:43;;;;;;;53.58;32.85;;;4.70;99.90;;;;;;5019465;28;20030;-52
2022/01/24 08:29:09;;;;;;;54.10;33.08;;;4.90;99.90;;;;;;5019184;28;20033;-54
2022/01/24 08:31:37;;;;;;;53.53;31.85;;;4.70;99.90;;;;;;5019822;28;20041;-53
2022/01/24 08:34:03;;;;;;;56.88;32.92;;;4.70;99.90;;;;;;5018541;28;20550;-53
2022/01/24 08:36:28;;;;;;;58.47;34.15;;;4.70;99.90;;;;;;5019514;28;20025;-53
2022/01/24 08:38:57;;;;;;;57.80;34.50;;;4.70;99.90;;;;;;5019698;28;20125;-54
2022/01/24 08:41:38;;;;;;;56.00;34.20;;;4.80;99.90;;;;;;5019084;28;21160;-50
2022/01/24 08:45:43;;;;;;;58.58;34.65;;;4.70;99.90;;;;;;5019597;28;20080;-52
2022/01/24 08:46:56;;;;;;;56.10;33.00;;;4.80;99.90;;;;;;5013497;28;20612;-54
2022/01/24 08:49:23;;;;;;;52.38;33.03;;;4.70;99.90;;;;;;5018545;28;20109;-50
2022/01/24 08:51:48;;;;;;;51.92;32.65;;;4.70;99.90;;;;;;5018351;28;20472;-51
2022/01/24 08:54:14;;;;;;;59.42;34.65;;;4.80;99.90;;;;;;5019528;28;20045;-53
2022/01/24 08:56:40;;;;;;;58.67;34.33;;;4.70;99.90;;;;;;4999811;28;20128;-52
2022/01/24 08:59:06;;;;;;;58.55;35.38;;;4.90;99.90;;;;;;4998569;28;20698;-55
2022/01/24 09:01:33;;;;;;;57.38;34.00;;;4.70;99.90;;;;;;5021360;28;20045;-53
2022/01/24 09:03:59;;;;;;;54.15;32.88;;;4.80;99.90;;;;;;5020791;28;20432;-54
2022/01/24 09:06:25;;;;;;;58.25;34.95;;;4.80;99.90;;;;;;5003984;28;20030;-52
2022/01/24 09:08:55;;;;;;;55.75;33.05;;;4.80;99.90;;;;;;5003229;28;20091;-55
2022/01/24 09:11:28;;;;;;;55.20;33.05;;;4.90;99.90;;;;;;5003867;28;20037;-54
2022/01/24 09:13:55;;;;;;;55.72;32.00;;;4.80;99.90;;;;;;5005381;28;20025;-56
2022/01/24 09:16:21;;;;;;;55.95;33.00;;;4.90;99.90;;;;;;5022261;28;20029;-56
2022/01/24 09:18:46;;;;;;;58.88;34.55;;;4.90;99.90;;;;;;5021996;28;20477;-52
2022/01/24 09:21:12;;;;;;;57.22;33.35;;;4.90;99.90;;;;;;5018867;28;20080;-52
2022/01/24 09:23:38;;;;;;;57.15;33.03;;;4.90;99.90;;;;;;5007330;28;20143;-48
2022/01/24 09:26:04;;;;;;;55.88;33.88;;;4.90;99.90;;;;;;4991404;28;20038;-49
2022/01/24 09:28:29;;;;;;;55.38;31.38;;;4.90;99.90;;;;;;5002951;28;20469;-52
2022/01/24 09:30:57;;;;;;;54.60;31.85;;;4.90;99.90;;;;;;5004833;28;20070;-52
2022/01/24 09:33:24;;;;;;;55.05;31.88;;;4.90;99.90;;;;;;5004498;28;20129;-55
2022/01/24 09:35:51;;;;;;;55.35;32.90;;;4.90;99.90;;;;;;5005205;28;20038;-50
2022/01/24 09:38:17;;;;;;;53.72;32.47;;;4.90;99.90;;;;;;5005805;28;20392;-52
2022/01/24 09:40:43;;;;;;;54.70;32.40;;;4.90;99.90;;;;;;5005301;28;20180;-51
2022/01/24 09:43:09;;;;;;;55.60;34.25;;;4.90;99.90;;;;;;4988445;28;20511;-52
2022/01/24 09:45:37;;;;;;;59.80;34.70;;;4.90;99.90;;;;;;5004219;28;20112;-54
2022/01/24 09:48:03;;;;;;;57.22;34.55;;;4.90;99.90;;;;;;5005782;28;20088;-53
2022/01/24 09:50:30;;;;;;;62.10;36.35;;;4.90;99.90;;;;;;5005806;28;20038;-51
2022/01/24 09:52:56;;;;;;;60.10;35.47;;;4.90;99.90;;;;;;5005438;28;20060;-53
2022/01/24 09:55:23;;;;;;;63.45;36.95;;;4.90;99.90;;;;;;5004596;28;20030;-53
2022/01/24 09:57:50;;;;;;;57.55;34.13;;;4.90;99.90;;;;;;4973716;28;20042;-52
2022/01/24 10:00:22;;;;;;;57.92;33.70;;;4.90;99.90;;;;;;5004778;28;20037;-51
2022/01/24 10:02:50;;;;;;;55.97;31.98;;;4.90;99.90;;;;;;5005819;28;20459;-51
2022/01/24 10:05:23;;;;;;;56.47;32.00;;;4.90;99.90;;;;;;5005106;28;20401;-55
2022/01/24 10:07:50;;;;;;;51.93;30.90;;;4.90;99.90;;;;;;5005554;28;20481;-51
2022/01/24 10:10:26;;;;;;;47.33;29.50;;;4.90;99.90;;;;;;4993587;28;20285;-50
2022/01/24 10:18:07;;;;;;;44.35;28.17;;;4.90;99.90;;;;;;5007487;28;20101;-55
2022/01/24 10:20:39;;;;;;;40.10;25.65;;;4.90;99.90;;;;;;4991748;28;20048;-53
2022/01/24 10:23:26;;;;;;;46.65;28.10;;;4.90;99.90;;;;;;5023279;28;20049;-51
2022/01/24 10:26:00;;;;;;;37.05;24.77;;;4.90;99.90;;;;;;5025842;28;20105;-52
2022/01/24 10:28:30;;;;;;;36.97;24.10;;;4.90;99.90;;;;;;5025738;28;20042;-50
2022/01/24 10:31:25;;;;;;;37.58;24.50;;;4.90;99.90;;;;;;5025200;28;20041;-50
2022/01/24 10:33:59;;;;;;;34.92;24.15;;;4.90;99.90;;;;;;5023153;28;20510;-55
2022/01/24 10:36:47;;;;;;;30.20;22.42;;;5.00;99.90;;;;;;5025050;28;20077;-54
2022/01/24 10:39:34;;;;;;;33.38;22.70;;;5.00;99.90;;;;;;5023699;28;20036;-55
2022/01/24 10:42:52;;;;;;;29.98;21.95;;;5.00;99.90;;;;;;5025633;28;20053;-56
2022/01/24 10:45:22;;;;;;;33.47;22.63;;;5.00;99.90;;;;;;5025527;28;20037;-53
2022/01/24 10:47:51;;;;;;;31.38;21.08;;;5.00;99.90;;;;;;5008881;28;20451;-54
2022/01/24 10:50:29;;;;;;;30.83;23.17;;;5.00;99.90;;;;;;5025695;28;20033;-53
2022/01/24 10:52:57;;;;;;;30.42;21.58;;;5.20;99.90;;;;;;5024220;28;20056;-55
2022/01/24 10:55:26;;;;;;;32.88;23.40;;;6.20;99.90;;;;;;5025573;28;20128;-55
2022/01/24 10:58:07;;;;;;;34.80;23.60;;;5.00;99.90;;;;;;5025428;28;20029;-50
2022/01/24 11:00:35;;;;;;;32.88;23.38;;;5.00;99.90;;;;;;5024654;28;20112;-55
2022/01/24 11:03:02;;;;;;;33.42;23.88;;;5.10;99.90;;;;;;5025406;28;20041;-54
2022/01/24 11:05:39;;;;;;;35.17;24.17;;;5.10;99.90;;;;;;5024483;28;20041;-53
2022/01/24 11:08:09;;;;;;;34.25;24.45;;;5.00;99.90;;;;;;5024763;28;20392;-51
2022/01/24 11:10:52;;;;;;;31.85;24.30;;;5.00;99.90;;;;;;5025569;28;20030;-53
2022/01/24 11:13:19;;;;;;;32.40;24.10;;;5.00;99.90;;;;;;5024774;28;20038;-51
2022/01/24 11:15:55;;;;;;;36.50;26.13;;;5.00;99.90;;;;;;5024713;28;20041;-51
2022/01/24 11:18:24;;;;;;;36.15;25.83;;;5.00;99.90;;;;;;5024355;28;20044;-51
2022/01/24 11:21:00;;;;;;;37.97;26.42;;;5.10;99.90;;;;;;5024189;28;20556;-53
2022/01/24 11:23:27;;;;;;;35.08;25.55;;;5.00;99.90;;;;;;5023267;28;20095;-52
2022/01/24 11:25:57;;;;;;;35.35;25.25;;;5.00;99.90;;;;;;5023979;28;20125;-50
2022/01/24 11:28:25;;;;;;;37.25;26.23;;;5.00;99.90;;;;;;5007587;28;20471;-56
2022/01/24 11:31:06;;;;;;;36.05;25.80;;;5.00;99.90;;;;;;5024304;28;20122;-54
2022/01/24 11:33:38;;;;;;;32.50;24.60;;;5.00;99.90;;;;;;5022379;28;20091;-50
2022/01/24 11:36:07;;;;;;;30.20;23.63;;;5.10;99.90;;;;;;5007119;28;20099;-49
2022/01/24 11:38:43;;;;;;;32.92;24.50;;;5.10;99.90;;;;;;5024226;28;20103;-52
2022/01/24 11:41:21;;;;;;;33.75;24.98;;;5.10;99.90;;;;;;5024741;28;20050;-53
2022/01/24 11:43:50;;;;;;;35.55;24.92;;;5.10;99.90;;;;;;5028041;28;20045;-51
2022/01/24 11:46:43;;;;;;;33.80;24.40;;;5.10;99.90;;;;;;5029255;28;20075;-53
2022/01/24 11:49:32;;;;;;;31.05;23.98;;;5.10;99.90;;;;;;5024505;28;20128;-56
2022/01/24 11:52:11;;;;;;;33.45;24.90;;;5.10;99.90;;;;;;5024056;28;20641;-53
2022/01/24 11:57:47;;;;;;;31.92;25.40;;;5.00;99.90;;;;;;4949079;29;20039;-53
2022/01/24 12:00:20;;;;;;;32.65;25.58;;;5.00;99.90;;;;;;5016943;28;20484;-54
2022/01/24 12:02:57;;;;;;;33.93;25.73;;;5.10;99.90;;;;;;5029583;28;20029;-50
2022/01/24 12:05:31;;;;;;;36.33;27.83;;;5.00;99.90;;;;;;5029783;28;20303;-55
2022/01/24 12:07:59;;;;;;;35.58;27.15;;;5.00;99.90;;;;;;5029097;28;20040;-55
2022/01/24 12:10:36;;;;;;;33.25;26.20;;;5.00;99.90;;;;;;5029470;28;20072;-54
2022/01/24 12:13:18;;;;;;;34.17;25.45;;;5.00;99.90;;;;;;5029971;28;20175;-52
2022/01/24 12:15:57;;;;;;;33.40;25.52;;;5.10;99.90;;;;;;5029567;28;20045;-55
2022/01/24 12:18:27;;;;;;;35.88;26.83;;;5.10;99.90;;;;;;5010659;28;20041;-56
2022/01/24 12:21:04;;;;;;;31.98;24.95;;;5.10;99.90;;;;;;5030093;28;20037;-51
2022/01/24 12:23:47;;;;;;;32.15;24.73;;;5.00;99.90;;;;;;5030773;28;20509;-55
2022/01/24 12:26:13;;;;;;;31.33;22.83;;;5.10;99.90;;;;;;5030297;28;20041;-53
2022/01/24 12:28:41;;;;;;;25.25;19.55;;;5.10;99.90;;;;;;5030113;28;20044;-50
2022/01/24 12:31:27;;;;;;;33.20;23.77;;;5.10;99.90;;;;;;5029411;28;20045;-55
2022/01/24 12:33:53;;;;;;;33.63;25.30;;;5.10;99.90;;;;;;5030393;28;20041;-54
2022/01/24 12:37:02;;;;;;;36.42;27.23;;;5.10;99.90;;;;;;5029166;28;20056;-52
2022/01/24 12:39:32;;;;;;;38.80;27.73;;;5.00;99.90;;;;;;4958373;28;20035;-52
2022/01/24 12:42:14;;;;;;;33.60;25.55;;;5.10;99.90;;;;;;5012967;28;20507;-51
2022/01/24 12:47:26;;;;;;;28.45;19.95;;;5.10;99.90;;;;;;5029338;28;20053;-54
2022/01/24 12:49:53;;;;;;;31.02;23.20;;;5.10;99.90;;;;;;5031323;28;20033;-52
2022/01/24 12:52:26;;;;;;;33.65;24.67;;;5.00;99.90;;;;;;5030827;28;20037;-52
2022/01/24 12:54:57;;;;;;;34.55;25.75;;;5.00;99.90;;;;;;5031000;28;20053;-53
2022/01/24 12:57:29;;;;;;;32.80;24.48;;;5.00;99.90;;;;;;5029381;28;20511;-53
2022/01/24 12:59:58;;;;;;;37.53;26.73;;;5.00;99.90;;;;;;5030437;28;20041;-55
2022/01/24 13:02:37;;;;;;;33.53;25.77;;;5.00;99.90;;;;;;5030336;28;20038;-56
2022/01/24 13:05:07;;;;;;;32.00;21.73;;;5.00;99.90;;;;;;5031153;28;20483;-55
2022/01/24 13:07:34;;;;;;;34.88;25.98;;;5.00;99.90;;;;;;5031317;28;20046;-54
2022/01/24 13:10:12;;;;;;;40.42;28.92;;;5.00;99.90;;;;;;5013175;28;20104;-55
2022/01/24 13:12:40;;;;;;;38.47;27.35;;;5.00;99.90;;;;;;5031037;28;20037;-55
2022/01/24 13:15:19;;;;;;;36.25;27.45;;;5.10;99.90;;;;;;5031179;28;20037;-51
2022/01/24 13:21:06;;;;;;;;;;;5.10;99.90;;;;;;5031117;28;20052;-54
2022/01/24 13:23:28;;;;;;;37.60;26.98;;;5.00;99.90;;;;;;5029960;28;20008;-53
2022/01/24 13:25:54;;;;;;;34.85;25.33;;;5.00;99.90;;;;;;5030573;28;20042;-51
2022/01/24 13:28:20;;;;;;;34.25;25.60;;;5.00;99.90;;;;;;5031058;28;20121;-54
2022/01/24 13:30:51;;;;;;;35.10;24.80;;;5.00;99.90;;;;;;5030319;28;20492;-55
2022/01/24 13:33:25;;;;;;;34.85;25.75;;;5.00;99.90;;;;;;5030700;28;20065;-50
2022/01/24 13:36:03;;;;;;;37.67;25.02;;;5.00;99.90;;;;;;5030708;28;20041;-54
2022/01/24 13:38:33;;;;;;;34.85;24.77;;;5.00;99.90;;;;;;5030819;28;20554;-54
2022/01/24 13:41:00;;;;;;;35.08;25.98;;;5.10;99.90;;;;;;5030913;28;20037;-56
2022/01/24 13:43:37;;;;;;;35.83;26.98;;;5.10;99.90;;;;;;5033960;28;20055;-50
2022/01/24 13:46:09;;;;;;;38.33;26.70;;;5.10;99.90;;;;;;5034672;28;20498;-55
2022/01/24 13:48:45;;;;;;;35.45;26.67;;;5.10;99.90;;;;;;5034263;28;20041;-54
2022/01/24 13:51:13;;;;;;;39.17;27.23;;;5.10;99.90;;;;;;5033632;28;20118;-53
2022/01/24 13:53:45;;;;;;;37.95;27.45;;;5.10;99.90;;;;;;5034227;28;20088;-52
2022/01/24 13:56:40;;;;;;;33.40;25.30;;;5.10;99.90;;;;;;5034362;28;20373;-52
2022/01/24 13:59:11;;;;;;;37.45;27.15;;;5.10;99.90;;;;;;5033071;28;20435;-53
2022/01/24 14:01:48;;;;;;;39.50;26.83;;;5.10;99.90;;;;;;5033138;28;20076;-50
2022/01/24 14:04:13;;;;;;;37.05;26.85;;;5.10;99.90;;;;;;5033831;28;20037;-53
2022/01/24 14:06:39;;;;;;;37.63;27.45;;;5.10;99.90;;;;;;5034194;28;20514;-54
2022/01/24 14:09:07;;;;;;;36.67;25.67;;;5.00;99.90;;;;;;5033960;28;20476;-49
2022/01/24 14:11:40;;;;;;;34.17;25.48;;;5.10;99.90;;;;;;5034301;28;20037;-51
2022/01/24 14:14:11;;;;;;;35.92;26.95;;;5.00;99.90;;;;;;5033489;28;20119;-52
2022/01/24 14:16:50;;;;;;;40.30;27.00;;;5.00;99.90;;;;;;5015577;28;20045;-50
2022/01/24 14:19:16;;;;;;;36.53;26.15;;;5.00;99.90;;;;;;5029261;28;20054;-54
2022/01/24 14:22:00;;;;;;;39.53;27.08;;;5.00;99.90;;;;;;5025906;28;20057;-52
2022/01/24 14:24:50;;;;;;;36.78;26.92;;;5.00;99.90;;;;;;5010228;28;20069;-50
2022/01/24 14:27:46;;;;;;;32.45;23.73;;;5.00;99.90;;;;;;5012864;28;20512;-52
2022/01/24 14:30:38;;;;;;;36.55;26.27;;;5.00;99.90;;;;;;5012290;28;20070;-53
2022/01/24 14:33:11;;;;;;;33.83;24.95;;;5.00;99.90;;;;;;5019616;28;20069;-50
2022/01/24 14:36:02;;;;;;;34.92;24.75;;;4.90;99.90;;;;;;5014504;28;20428;-49
2022/01/24 14:38:38;;;;;;;30.98;21.92;;;5.00;99.90;;;;;;5008806;28;20046;-51
2022/01/24 14:41:29;;;;;;;32.25;23.92;;;4.90;99.90;;;;;;5010099;28;20091;-54
2022/01/24 14:46:40;;;;;;;34.75;25.58;;;4.90;99.90;;;;;;5011973;28;20052;-49
2022/01/24 14:49:11;;;;;;;38.40;25.58;;;4.80;99.90;;;;;;5009210;28;20060;-53
2022/01/24 14:51:42;;;;;;;34.17;24.45;;;4.80;99.90;;;;;;5027679;28;20037;-53